UWGG 170300Z VRB03MPS 6000 -TSRA BKN017CB 18/17 Q1016 R36R/290050 TEMPO 09008G15MPS
QNH:(hPa/inHg/mmHg)1016 / 30 / 762
QFE:(hPa/inHg/mmHg)1007 / 29.72 / 755
Temperature18
Dew Point17
Visibility6000
WeatherLight Thunderstorm Rain
Cloud CoverBKN (1700);
Transition Altitude5000 ft.
Transition LevelFL60
SQUAWK